createdAt,value
2018-06-02T00:00:22.784Z,71.50
2018-06-02T00:01:22.767Z,72.30
2018-06-02T00:02:22.700Z,73.20
2018-06-02T00:03:22.702Z,74.00
2018-06-02T00:04:22.624Z,73.50
2018-06-02T00:05:22.585Z,75.10
2018-06-02T00:06:22.571Z,75.70
2018-06-02T00:07:22.522Z,76.50
2018-06-02T00:08:22.528Z,78.30
2018-06-02T00:09:22.512Z,77.50
2018-06-02T00:10:22.463Z,73.40
2018-06-02T00:11:22.449Z,75.90
2018-06-02T00:12:22.330Z,78.10
2018-06-02T00:13:22.287Z,77.40
2018-06-02T00:14:22.316Z,80.10
2018-06-02T00:15:22.245Z,78.20
2018-06-02T00:16:22.188Z,76.10
2018-06-02T00:17:22.147Z,74.40
2018-06-02T00:18:22.106Z,77.40
2018-06-02T00:19:22.096Z,79.10
2018-06-02T00:20:22.028Z,81.20
2018-06-02T00:21:22.004Z,77.50
2018-06-02T00:22:21.962Z,77.70
2018-06-02T00:23:21.944Z,78.30
2018-06-02T00:24:21.903Z,81.80
2018-06-02T00:25:21.840Z,80.00
2018-06-02T00:26:21.832Z,79.20
2018-06-02T00:27:21.772Z,82.80
2018-06-02T00:28:21.816Z,80.90
2018-06-02T00:29:21.721Z,82.70
2018-06-02T00:30:21.672Z,83.00
2018-06-02T00:31:21.616Z,84.80
2018-06-02T00:32:21.671Z,81.60
2018-06-02T00:33:21.584Z,82.30
2018-06-02T00:34:21.552Z,80.30
2018-06-02T00:35:21.467Z,79.70
2018-06-02T00:36:21.436Z,79.80
2018-06-02T00:37:21.389Z,82.70
2018-06-02T00:38:21.389Z,82.50
2018-06-02T00:39:21.317Z,86.30
2018-06-02T00:40:21.355Z,88.50
2018-06-02T00:41:21.267Z,88.60
2018-06-02T00:42:21.223Z,85.30
2018-06-02T00:43:21.167Z,91.00
2018-06-02T00:44:21.139Z,86.20
2018-06-02T00:45:21.119Z,82.80
2018-06-02T00:46:21.077Z,87.50
2018-06-02T00:47:21.050Z,86.10
2018-06-02T00:48:20.971Z,86.80
2018-06-02T00:49:20.949Z,83.60
2018-06-02T00:50:20.934Z,79.60
2018-06-02T00:51:20.928Z,77.50
2018-06-02T00:52:20.834Z,77.10
2018-06-02T00:53:20.791Z,74.60
2018-06-02T00:54:20.745Z,75.30
2018-06-02T00:55:20.753Z,71.80
2018-06-02T00:56:20.716Z,66.00
2018-06-02T00:57:20.650Z,64.50
2018-06-02T00:58:20.614Z,64.70
2018-06-02T00:59:20.573Z,59.60
2018-06-02T01:00:20.555Z,62.90
2018-06-02T01:01:20.512Z,65.10
2018-06-02T01:02:20.534Z,62.10
2018-06-02T01:03:20.417Z,56.10
2018-06-02T01:04:20.446Z,53.90
2018-06-02T01:05:20.365Z,50.60
2018-06-02T01:06:20.327Z,49.60
2018-06-02T01:07:20.291Z,44.50
2018-06-02T01:08:20.242Z,40.20
2018-06-02T01:09:20.188Z,43.00
2018-06-02T01:10:20.185Z,38.50
2018-06-02T01:11:20.147Z,38.80
2018-06-02T01:12:20.124Z,38.80
2018-06-02T01:13:20.063Z,39.50
2018-06-02T01:14:20.005Z,37.10
2018-06-02T01:15:19.960Z,38.60
2018-06-02T01:16:19.961Z,36.50
2018-06-02T01:17:19.885Z,34.00
2018-06-02T01:18:19.906Z,34.50
2018-06-02T01:19:19.834Z,32.70
2018-06-02T01:20:19.788Z,34.10
2018-06-02T01:21:19.767Z,32.20
2018-06-02T01:22:19.762Z,31.20
2018-06-02T01:23:19.681Z,30.70
2018-06-02T01:24:19.625Z,32.80
2018-06-02T01:25:19.681Z,32.20
2018-06-02T01:26:19.543Z,30.10
2018-06-02T01:27:19.524Z,29.80
2018-06-02T01:28:29.695Z,32.30
2018-06-02T01:29:19.436Z,31.70
2018-06-02T01:30:19.403Z,30.60
2018-06-02T01:31:19.420Z,28.80
2018-06-02T01:32:19.345Z,29.70
2018-06-02T01:33:21.171Z,30.90
2018-06-02T01:34:19.268Z,31.60
2018-06-02T01:35:19.202Z,30.40
2018-06-02T01:36:19.234Z,29.40
2018-06-02T01:37:19.145Z,30.80
2018-06-02T01:38:19.105Z,30.30
2018-06-02T01:39:19.056Z,29.70
2018-06-02T01:40:19.023Z,29.10
2018-06-02T01:41:18.995Z,31.00
2018-06-02T01:42:18.977Z,29.40
2018-06-02T01:43:18.909Z,28.30
2018-06-02T01:44:18.865Z,33.40
2018-06-02T01:45:18.831Z,31.40
2018-06-02T01:46:18.784Z,29.50
2018-06-02T01:47:18.796Z,29.10
2018-06-02T01:48:18.711Z,29.30
2018-06-02T01:49:18.673Z,31.00
2018-06-02T01:50:18.648Z,28.60
2018-06-02T01:51:28.710Z,30.40
2018-06-02T01:52:18.568Z,32.30
2018-06-02T01:53:18.573Z,32.10
2018-06-02T01:54:18.485Z,32.00
2018-06-02T01:55:18.437Z,31.80
2018-06-02T01:56:18.410Z,32.30
2018-06-02T01:57:18.388Z,31.90
2018-06-02T01:58:18.332Z,33.50
2018-06-02T01:59:18.301Z,33.40
2018-06-02T02:00:18.262Z,33.10
2018-06-02T02:01:18.227Z,33.30
2018-06-02T02:02:18.286Z,33.30
2018-06-02T02:03:18.224Z,32.10
2018-06-02T02:04:18.112Z,33.60
2018-06-02T02:05:18.139Z,35.10
2018-06-02T02:06:18.053Z,34.50
2018-06-02T02:07:17.997Z,35.10
2018-06-02T02:08:18.000Z,36.80
2018-06-02T02:09:17.938Z,33.80
2018-06-02T02:10:17.982Z,34.20
2018-06-02T02:11:17.855Z,36.20
2018-06-02T02:12:17.819Z,36.30
2018-06-02T02:13:17.949Z,34.90
2018-06-02T02:14:17.725Z,35.50
2018-06-02T02:15:28.223Z,37.40
2018-06-02T02:16:17.654Z,36.50
2018-06-02T02:17:17.622Z,35.10
2018-06-02T02:18:17.569Z,36.60
2018-06-02T02:19:17.556Z,36.50
2018-06-02T02:20:17.521Z,37.10
2018-06-02T02:21:17.515Z,36.40
2018-06-02T02:22:17.485Z,36.40
2018-06-02T02:23:17.416Z,36.90
2018-06-02T02:24:17.423Z,36.80
2018-06-02T02:25:17.390Z,39.10
2018-06-02T02:26:17.304Z,37.50
2018-06-02T02:27:17.237Z,39.10
2018-06-02T02:28:17.211Z,39.10
2018-06-02T02:29:17.200Z,36.60
2018-06-02T02:30:17.146Z,39.60
2018-06-02T02:31:17.133Z,36.00
2018-06-02T02:32:17.071Z,36.60
2018-06-02T02:33:17.039Z,36.70
2018-06-02T02:34:17.024Z,38.00
2018-06-02T02:35:16.946Z,38.90
2018-06-02T02:36:16.900Z,38.20
2018-06-02T02:37:16.932Z,38.40
2018-06-02T02:38:27.272Z,38.00
2018-06-02T02:39:16.820Z,40.70
2018-06-02T02:40:16.785Z,38.70
2018-06-02T02:41:16.759Z,37.20
2018-06-02T02:42:16.711Z,40.20
2018-06-02T02:43:16.667Z,41.00
2018-06-02T02:44:16.598Z,39.70
2018-06-02T02:45:16.597Z,40.60
2018-06-02T02:46:16.531Z,41.30
2018-06-02T02:47:16.492Z,41.30
2018-06-02T02:48:16.490Z,43.60
2018-06-02T02:49:16.446Z,42.90
2018-06-02T02:50:16.399Z,43.50
2018-06-02T02:51:16.338Z,43.50
2018-06-02T02:52:16.317Z,43.40
2018-06-02T02:53:16.282Z,42.70
2018-06-02T02:54:16.243Z,45.60
2018-06-02T02:55:16.215Z,46.40
2018-06-02T02:56:16.167Z,46.50
2018-06-02T02:57:16.110Z,47.30
2018-06-02T02:58:16.076Z,47.20
2018-06-02T02:59:16.037Z,46.10
2018-06-02T03:00:16.035Z,46.80
2018-06-02T03:01:15.961Z,47.40
2018-06-02T03:02:24.800Z,47.40
2018-06-02T03:03:15.900Z,49.00
2018-06-02T03:04:15.842Z,50.60
2018-06-02T03:05:15.826Z,48.20
2018-06-02T03:06:15.805Z,51.10
2018-06-02T03:07:15.734Z,50.70
2018-06-02T03:08:15.698Z,52.60
2018-06-02T03:09:15.663Z,50.70
2018-06-02T03:10:15.621Z,51.10
2018-06-02T03:11:15.607Z,50.90
2018-06-02T03:12:15.536Z,50.40
2018-06-02T03:13:15.497Z,52.20
2018-06-02T03:14:15.497Z,51.30
2018-06-02T03:15:15.425Z,52.30
2018-06-02T03:16:15.446Z,51.20
2018-06-02T03:17:15.364Z,52.60
2018-06-02T03:18:15.322Z,52.50
2018-06-02T03:19:15.278Z,55.50
2018-06-02T03:20:15.262Z,53.00
2018-06-02T03:21:15.234Z,53.60
2018-06-02T03:22:15.179Z,52.70
2018-06-02T03:23:15.131Z,54.30
2018-06-02T03:24:15.086Z,53.20
2018-06-02T03:25:15.050Z,54.00
2018-06-02T03:26:15.051Z,54.80
2018-06-02T03:27:14.970Z,54.90
2018-06-02T03:28:14.955Z,56.90
2018-06-02T03:29:14.917Z,55.00
2018-06-02T03:30:14.896Z,54.90
2018-06-02T03:31:14.836Z,54.10
2018-06-02T03:32:14.833Z,55.90
2018-06-02T03:33:14.756Z,57.30
2018-06-02T03:34:14.737Z,55.80
2018-06-02T03:35:14.686Z,56.80
2018-06-02T03:36:14.674Z,56.70
2018-06-02T03:37:14.650Z,53.50
2018-06-02T03:38:14.575Z,55.80
2018-06-02T03:39:14.558Z,56.80
2018-06-02T03:40:14.510Z,54.90
2018-06-02T03:41:14.457Z,57.80
2018-06-02T03:42:14.450Z,57.80
2018-06-02T03:43:14.396Z,55.60
2018-06-02T03:44:14.344Z,55.40
2018-06-02T03:45:14.302Z,56.00
2018-06-02T03:46:14.264Z,57.30
2018-06-02T03:47:14.244Z,56.60
2018-06-02T03:48:25.338Z,58.20
2018-06-02T03:49:14.154Z,57.40
2018-06-02T03:50:14.114Z,58.60
2018-06-02T03:51:14.081Z,56.20
2018-06-02T03:52:14.075Z,57.40
2018-06-02T03:53:14.010Z,57.80
2018-06-02T03:54:13.985Z,56.60
2018-06-02T03:55:13.927Z,58.10
2018-06-02T03:56:13.888Z,56.80
2018-06-02T03:57:13.865Z,58.90
2018-06-02T03:58:13.848Z,58.60
2018-06-02T03:59:13.786Z,58.60
2018-06-02T04:00:13.775Z,59.00
2018-06-02T04:01:13.716Z,57.80
2018-06-02T04:02:13.686Z,57.30
2018-06-02T04:03:13.649Z,59.40
2018-06-02T04:04:13.592Z,58.70
2018-06-02T04:05:13.560Z,60.30
2018-06-02T04:06:13.526Z,58.90
2018-06-02T04:07:13.470Z,58.10
2018-06-02T04:08:13.501Z,57.60
2018-06-02T04:09:13.406Z,58.20
2018-06-02T04:10:13.385Z,58.20
2018-06-02T04:11:13.337Z,58.50
2018-06-02T04:12:23.346Z,59.40
2018-06-02T04:13:13.273Z,58.80
2018-06-02T04:14:13.208Z,60.20
2018-06-02T04:15:13.170Z,59.50
2018-06-02T04:16:13.143Z,59.00
2018-06-02T04:17:13.101Z,59.10
2018-06-02T04:18:13.062Z,59.00
2018-06-02T04:19:13.037Z,60.20
2018-06-02T04:20:12.989Z,58.60
2018-06-02T04:21:12.956Z,58.80
2018-06-02T04:22:12.942Z,59.20
2018-06-02T04:23:12.925Z,59.30
2018-06-02T04:24:12.875Z,60.70
2018-06-02T04:25:12.813Z,60.70
2018-06-02T04:26:12.784Z,59.30
2018-06-02T04:27:12.728Z,60.50
2018-06-02T04:28:12.715Z,59.80
2018-06-02T04:29:12.692Z,63.80
2018-06-02T04:30:12.661Z,62.30
2018-06-02T04:31:12.589Z,59.90
2018-06-02T04:32:12.536Z,60.00
2018-06-02T04:33:12.498Z,60.40
2018-06-02T04:34:12.498Z,60.50
2018-06-02T04:35:22.890Z,58.80
2018-06-02T04:36:12.393Z,62.30
2018-06-02T04:37:12.349Z,60.80
2018-06-02T04:38:12.356Z,60.00
2018-06-02T04:39:12.331Z,61.40
2018-06-02T04:40:12.249Z,61.70
2018-06-02T04:41:12.212Z,62.50
2018-06-02T04:42:12.160Z,62.20
2018-06-02T04:43:12.127Z,61.40
2018-06-02T04:44:12.094Z,63.90
2018-06-02T04:45:12.078Z,64.90
2018-06-02T04:46:12.028Z,63.70
2018-06-02T04:47:12.004Z,63.50
2018-06-02T04:48:11.948Z,61.80
2018-06-02T04:49:11.913Z,63.20
2018-06-02T04:50:11.905Z,62.50
2018-06-02T04:51:11.835Z,62.50
2018-06-02T04:52:11.802Z,62.20
2018-06-02T04:53:11.774Z,61.60
2018-06-02T04:54:11.714Z,61.70
2018-06-02T04:55:11.709Z,62.00
2018-06-02T04:56:11.652Z,63.10
2018-06-02T04:57:11.608Z,63.00
2018-06-02T04:58:22.936Z,63.70
2018-06-02T04:59:11.545Z,62.80
2018-06-02T05:00:11.520Z,61.60
2018-06-02T05:01:11.464Z,63.70
2018-06-02T05:02:11.424Z,63.60
2018-06-02T05:03:11.404Z,64.80
2018-06-02T05:04:11.346Z,65.40
2018-06-02T05:05:11.350Z,64.70
2018-06-02T05:06:11.270Z,65.80
2018-06-02T05:07:11.237Z,68.20
2018-06-02T05:08:11.202Z,66.00
2018-06-02T05:09:11.166Z,67.60
2018-06-02T05:10:11.130Z,66.90
2018-06-02T05:11:11.108Z,67.30
2018-06-02T05:12:11.087Z,67.50
2018-06-02T05:13:11.014Z,69.50
2018-06-02T05:14:10.974Z,67.40
2018-06-02T05:15:10.967Z,68.30
2018-06-02T05:16:10.938Z,70.50
2018-06-02T05:17:10.867Z,68.30
2018-06-02T05:18:10.846Z,72.20
2018-06-02T05:19:10.797Z,67.40
2018-06-02T05:20:10.763Z,68.40
2018-06-02T05:21:10.776Z,69.30
2018-06-02T05:22:20.938Z,68.90
2018-06-02T05:23:10.646Z,68.50
2018-06-02T05:24:10.597Z,71.60
2018-06-02T05:25:10.564Z,68.10
2018-06-02T05:26:10.561Z,69.60
2018-06-02T05:27:10.506Z,71.80
2018-06-02T05:28:10.471Z,72.80
2018-06-02T05:29:10.422Z,70.30
2018-06-02T05:30:10.394Z,66.50
2018-06-02T05:31:10.342Z,69.20
2018-06-02T05:32:10.350Z,71.10
2018-06-02T05:33:10.296Z,68.40
2018-06-02T05:34:10.252Z,71.00
2018-06-02T05:35:10.208Z,66.80
2018-06-02T05:36:10.167Z,70.40
2018-06-02T05:37:10.141Z,71.60
2018-06-02T05:38:10.085Z,69.00
2018-06-02T05:39:10.048Z,69.00
2018-06-02T05:40:10.019Z,70.30
2018-06-02T05:41:09.984Z,71.30
2018-06-02T05:42:09.965Z,67.60
2018-06-02T05:43:09.907Z,72.90
2018-06-02T05:44:09.891Z,73.00
2018-06-02T05:45:09.830Z,70.70
2018-06-02T05:46:09.796Z,71.10
2018-06-02T05:47:09.794Z,73.50
2018-06-02T05:48:09.720Z,74.40
2018-06-02T05:49:09.704Z,77.10
2018-06-02T05:50:09.648Z,75.40
2018-06-02T05:51:09.632Z,76.00
2018-06-02T05:52:09.607Z,75.60
2018-06-02T05:53:09.555Z,75.90
2018-06-02T05:54:09.502Z,77.00
2018-06-02T05:55:09.452Z,76.10
2018-06-02T05:56:09.420Z,80.90
2018-06-02T05:57:09.423Z,78.30
2018-06-02T05:58:09.355Z,80.80
2018-06-02T05:59:09.305Z,79.00
2018-06-02T06:00:09.272Z,82.00
2018-06-02T06:01:09.269Z,80.10
2018-06-02T06:02:09.226Z,83.40
2018-06-02T06:03:20.477Z,81.00
2018-06-02T06:04:09.143Z,81.90
2018-06-02T06:05:09.077Z,84.70
2018-06-02T06:06:09.047Z,81.50
2018-06-02T06:07:09.005Z,83.40
2018-06-02T06:08:09.022Z,83.90
2018-06-02T06:09:08.943Z,82.10
2018-06-02T06:10:08.896Z,84.50
2018-06-02T06:11:08.880Z,83.80
2018-06-02T06:12:08.827Z,81.90
2018-06-02T06:13:08.807Z,84.50
2018-06-02T06:14:08.751Z,81.00
2018-06-02T06:15:08.712Z,81.80
2018-06-02T06:16:08.683Z,83.00
2018-06-02T06:17:08.647Z,83.90
2018-06-02T06:18:08.668Z,82.60
2018-06-02T06:19:08.573Z,85.80
2018-06-02T06:20:08.539Z,82.60
2018-06-02T06:21:08.503Z,82.20
2018-06-02T06:22:08.482Z,80.00
2018-06-02T06:23:08.439Z,77.00
2018-06-02T06:24:08.418Z,76.90
2018-06-02T06:25:08.352Z,76.70
2018-06-02T06:26:08.306Z,79.80
2018-06-02T06:27:08.281Z,73.80
2018-06-02T06:28:08.258Z,76.40
2018-06-02T06:29:08.253Z,75.10
2018-06-02T06:30:08.204Z,75.40
2018-06-02T06:31:08.130Z,72.80
2018-06-02T06:32:08.095Z,75.60
2018-06-02T06:33:08.120Z,74.80
2018-06-02T06:34:08.043Z,76.80
2018-06-02T06:35:08.003Z,74.00
2018-06-02T06:36:07.936Z,73.40
2018-06-02T06:37:07.928Z,72.20
2018-06-02T06:38:07.882Z,72.60
2018-06-02T06:39:07.910Z,71.40
2018-06-02T06:40:07.858Z,68.00
2018-06-02T06:41:07.795Z,64.40
2018-06-02T06:42:07.737Z,60.10
2018-06-02T06:43:07.695Z,55.70
2018-06-02T06:44:07.699Z,55.40
2018-06-02T06:45:07.619Z,54.30
2018-06-02T06:46:07.569Z,53.70
2018-06-02T06:47:07.532Z,49.30
2018-06-02T06:48:07.527Z,46.70
2018-06-02T06:49:07.494Z,45.60
2018-06-02T06:50:07.457Z,45.90
2018-06-02T06:51:07.406Z,43.90
2018-06-02T06:52:07.372Z,43.80
2018-06-02T06:53:07.365Z,43.00
2018-06-02T06:54:07.319Z,42.80
2018-06-02T06:55:07.286Z,41.30
2018-06-02T06:56:07.205Z,43.70
2018-06-02T06:57:07.209Z,39.30
2018-06-02T06:58:07.148Z,40.50
2018-06-02T06:59:07.121Z,40.50
2018-06-02T07:00:07.121Z,40.20
2018-06-02T07:01:07.037Z,37.70
2018-06-02T07:02:07.001Z,38.60
2018-06-02T07:03:18.008Z,36.60
2018-06-02T07:04:06.956Z,36.20
2018-06-02T07:05:06.910Z,36.90
2018-06-02T07:06:06.848Z,36.40
2018-06-02T07:07:06.869Z,35.30
2018-06-02T07:08:06.814Z,33.70
2018-06-02T07:09:06.732Z,34.30
2018-06-02T07:10:06.748Z,32.70
2018-06-02T07:11:06.697Z,28.50
2018-06-02T07:12:06.643Z,25.40
2018-06-02T07:13:06.608Z,26.30
2018-06-02T07:14:06.558Z,27.10
2018-06-02T07:15:06.512Z,24.90
2018-06-02T07:16:06.491Z,23.80
2018-06-02T07:17:06.461Z,22.70
2018-06-02T07:18:06.404Z,21.90
2018-06-02T07:19:06.379Z,22.00
2018-06-02T07:20:06.343Z,22.30
2018-06-02T07:21:06.334Z,21.90
2018-06-02T07:22:06.274Z,21.70
2018-06-02T07:23:06.230Z,20.60
2018-06-02T07:24:06.190Z,20.90
2018-06-02T07:25:06.179Z,21.30
2018-06-02T07:26:06.216Z,19.80
2018-06-02T07:27:06.073Z,20.20
2018-06-02T07:28:06.054Z,20.40
2018-06-02T07:29:06.053Z,21.20
2018-06-02T07:30:05.975Z,20.30
2018-06-02T07:31:06.006Z,18.60
2018-06-02T07:32:05.914Z,18.50
2018-06-02T07:33:05.874Z,18.30
2018-06-02T07:34:05.812Z,18.60
2018-06-02T07:35:05.832Z,18.40
2018-06-02T07:36:05.784Z,18.80
2018-06-02T07:37:05.750Z,18.80
2018-06-02T07:38:05.674Z,19.40
2018-06-02T07:39:05.634Z,19.30
2018-06-02T07:40:05.588Z,20.10
2018-06-02T07:41:05.610Z,19.70
2018-06-02T07:42:05.589Z,19.30
2018-06-02T07:43:05.484Z,19.00
2018-06-02T07:44:05.454Z,18.70
2018-06-02T07:45:05.429Z,18.50
2018-06-02T07:46:05.388Z,18.50
2018-06-02T07:47:05.373Z,19.00
2018-06-02T07:48:05.341Z,17.40
2018-06-02T07:49:05.276Z,17.80
2018-06-02T07:50:05.297Z,17.40
2018-06-02T07:51:05.205Z,17.50
2018-06-02T07:52:05.180Z,17.80
2018-06-02T07:53:05.143Z,16.90
2018-06-02T07:54:05.132Z,17.20
2018-06-02T07:55:05.057Z,17.10
2018-06-02T07:56:05.029Z,16.70
2018-06-02T07:57:05.030Z,17.10
2018-06-02T07:58:04.950Z,17.60
2018-06-02T07:59:04.899Z,18.70
2018-06-02T08:00:04.876Z,18.20
2018-06-02T08:01:04.850Z,18.40
2018-06-02T08:02:04.793Z,18.10
2018-06-02T08:03:04.785Z,18.90
2018-06-02T08:04:04.735Z,19.30
2018-06-02T08:05:04.687Z,19.00
2018-06-02T08:06:04.678Z,19.20
2018-06-02T08:07:04.658Z,19.10
2018-06-02T08:08:04.610Z,18.50
2018-06-02T08:09:04.556Z,18.40
2018-06-02T08:10:04.506Z,18.60
2018-06-02T08:11:04.479Z,18.40
2018-06-02T08:12:04.454Z,18.20
2018-06-02T08:13:04.455Z,18.00
2018-06-02T08:14:04.367Z,18.40
2018-06-02T08:15:04.316Z,17.90
2018-06-02T08:16:04.288Z,18.30
2018-06-02T08:17:04.264Z,17.60
2018-06-02T08:18:04.316Z,17.30
2018-06-02T08:19:04.201Z,17.10
2018-06-02T08:20:04.154Z,16.70
2018-06-02T08:21:04.115Z,17.20
2018-06-02T08:22:04.072Z,16.70
2018-06-02T08:23:14.618Z,15.80
2018-06-02T08:24:03.991Z,15.80
2018-06-02T08:25:03.964Z,14.50
2018-06-02T08:26:04.477Z,14.70
2018-06-02T08:27:03.892Z,14.40
2018-06-02T08:28:03.874Z,15.00
2018-06-02T08:29:03.842Z,15.20
2018-06-02T08:30:03.778Z,15.60
2018-06-02T08:31:03.744Z,15.80
2018-06-02T08:32:03.702Z,15.40
2018-06-02T08:33:03.666Z,15.20
2018-06-02T08:34:03.655Z,14.40
2018-06-02T08:35:03.593Z,15.60
2018-06-02T08:36:03.558Z,14.40
2018-06-02T08:37:03.526Z,14.50
2018-06-02T08:38:03.484Z,14.60
2018-06-02T08:39:03.477Z,15.20
2018-06-02T08:40:03.427Z,14.30
2018-06-02T08:41:14.897Z,13.90
2018-06-02T08:42:03.411Z,14.80
2018-06-02T08:43:03.305Z,13.90
2018-06-02T08:44:03.697Z,14.40
2018-06-02T08:45:03.230Z,13.70
2018-06-02T08:46:03.202Z,12.40
2018-06-02T08:47:03.166Z,13.30
2018-06-02T08:48:03.123Z,12.50
2018-06-02T08:49:03.100Z,12.80
2018-06-02T08:50:03.073Z,12.90
2018-06-02T08:51:03.010Z,13.00
2018-06-02T08:52:02.987Z,13.90
2018-06-02T08:53:02.986Z,12.70
2018-06-02T08:54:02.906Z,13.10
2018-06-02T08:55:02.894Z,12.60
2018-06-02T08:56:02.841Z,12.60
2018-06-02T08:57:02.853Z,12.30
2018-06-02T08:58:02.788Z,13.70
2018-06-02T08:59:02.738Z,14.90
2018-06-02T09:00:02.730Z,14.60
2018-06-02T09:01:02.669Z,14.50
2018-06-02T09:02:02.631Z,13.50
2018-06-02T09:03:02.593Z,13.40
2018-06-02T09:04:02.556Z,14.00
2018-06-02T09:05:02.546Z,13.80
2018-06-02T09:06:02.490Z,14.70
2018-06-02T09:07:02.463Z,14.00
2018-06-02T09:08:02.409Z,14.70
2018-06-02T09:09:02.372Z,14.80
2018-06-02T09:10:02.382Z,15.00
2018-06-02T09:11:02.312Z,15.00
2018-06-02T09:12:02.305Z,16.00
2018-06-02T09:13:02.242Z,16.20
2018-06-02T09:14:02.213Z,16.20
2018-06-02T09:15:02.162Z,16.30
2018-06-02T09:16:02.147Z,16.60
2018-06-02T09:17:02.093Z,16.90
2018-06-02T09:18:02.066Z,17.70
2018-06-02T09:19:02.029Z,17.10
2018-06-02T09:20:01.999Z,17.00
2018-06-02T09:21:11.753Z,17.50
2018-06-02T09:22:01.938Z,17.00
2018-06-02T09:23:01.978Z,17.00
2018-06-02T09:24:01.861Z,16.90
2018-06-02T09:25:01.884Z,16.70
2018-06-02T09:26:01.813Z,17.50
2018-06-02T09:27:01.739Z,15.70
2018-06-02T09:28:01.718Z,15.70
2018-06-02T09:29:01.675Z,16.10
2018-06-02T09:30:01.639Z,14.70
2018-06-02T09:31:01.638Z,14.40
2018-06-02T09:32:01.570Z,13.90
2018-06-02T09:33:01.537Z,14.60
2018-06-02T09:34:01.496Z,14.00
2018-06-02T09:35:01.485Z,14.50
2018-06-02T09:36:01.448Z,14.00
2018-06-02T09:37:01.437Z,14.50
2018-06-02T09:38:01.354Z,14.20
2018-06-02T09:39:01.321Z,14.20
2018-06-02T09:40:01.297Z,14.40
2018-06-02T09:41:01.260Z,13.50
2018-06-02T09:42:11.544Z,13.40
2018-06-02T09:43:01.191Z,13.00
2018-06-02T09:44:01.142Z,13.20
2018-06-02T09:45:01.107Z,12.80
2018-06-02T09:46:01.098Z,12.60
2018-06-02T09:47:01.105Z,12.90
2018-06-02T09:48:01.020Z,11.90
2018-06-02T09:49:00.982Z,11.60
2018-06-02T09:50:00.973Z,11.60
2018-06-02T09:51:00.921Z,10.80
2018-06-02T09:52:00.909Z,11.20
2018-06-02T09:53:00.842Z,10.50
2018-06-02T09:54:00.822Z,11.00
2018-06-02T09:55:00.783Z,11.10
2018-06-02T09:56:00.738Z,11.80
2018-06-02T09:57:00.756Z,11.70
2018-06-02T09:58:00.677Z,11.60
2018-06-02T09:59:00.650Z,12.10
2018-06-02T10:00:00.617Z,11.50
2018-06-02T10:01:00.585Z,11.90
2018-06-02T10:02:10.237Z,11.60
2018-06-02T10:03:00.573Z,11.50
2018-06-02T10:04:00.479Z,11.40
2018-06-02T10:05:00.480Z,12.20
2018-06-02T10:06:00.404Z,11.70
2018-06-02T10:07:00.363Z,11.40
2018-06-02T10:08:00.376Z,11.90
2018-06-02T10:09:00.308Z,11.30
2018-06-02T10:10:00.274Z,11.50
2018-06-02T10:11:00.245Z,11.40
2018-06-02T10:12:00.220Z,11.90
2018-06-02T10:13:00.227Z,12.00
2018-06-02T10:14:00.146Z,11.90
2018-06-02T10:15:00.119Z,11.60
2018-06-02T10:16:00.097Z,11.90
2018-06-02T10:17:00.052Z,11.70
2018-06-02T10:18:00.061Z,12.20
2018-06-02T10:18:59.995Z,12.40
2018-06-02T10:19:59.935Z,11.90
2018-06-02T10:20:59.915Z,11.60
2018-06-02T10:21:59.909Z,11.30
2018-06-02T10:22:59.913Z,11.10
2018-06-02T10:23:59.815Z,11.10
2018-06-02T10:24:59.810Z,11.50
2018-06-02T10:25:59.742Z,10.10
2018-06-02T10:26:59.740Z,10.70
2018-06-02T10:27:59.705Z,10.60
2018-06-02T10:28:59.645Z,10.70
2018-06-02T10:29:59.746Z,10.00
2018-06-02T10:30:59.581Z,10.10
2018-06-02T10:31:59.546Z,9.60
2018-06-02T10:32:59.528Z,9.50
2018-06-02T10:33:59.497Z,9.90
2018-06-02T10:34:59.441Z,9.70
2018-06-02T10:35:59.416Z,9.00
2018-06-02T10:36:59.379Z,10.10
2018-06-02T10:37:59.328Z,10.60
2018-06-02T10:38:59.337Z,9.50
2018-06-02T10:39:59.311Z,9.90
2018-06-02T10:41:11.072Z,10.10
2018-06-02T10:41:59.430Z,9.80
2018-06-02T10:43:00.319Z,8.90
2018-06-02T10:43:59.632Z,9.90
2018-06-02T10:44:59.102Z,9.20
2018-06-02T10:45:59.274Z,9.20
2018-06-02T10:46:59.035Z,8.90
2018-06-02T10:47:59.002Z,9.20
2018-06-02T10:48:58.994Z,9.40
2018-06-02T10:49:58.935Z,9.50
2018-06-02T10:50:58.905Z,8.40
2018-06-02T10:51:58.866Z,8.80
2018-06-02T10:52:58.842Z,8.20
2018-06-02T10:53:58.803Z,8.20
2018-06-02T10:54:58.800Z,7.80
2018-06-02T10:55:58.728Z,7.50
2018-06-02T10:56:58.686Z,7.80
2018-06-02T10:57:58.654Z,7.10
2018-06-02T10:58:58.628Z,6.60
2018-06-02T10:59:58.614Z,6.30
2018-06-02T11:00:58.557Z,6.00
2018-06-02T11:01:58.528Z,7.50
2018-06-02T11:02:58.482Z,6.10
2018-06-02T11:03:58.469Z,7.00
2018-06-02T11:04:58.445Z,7.50
2018-06-02T11:05:58.390Z,7.70
2018-06-02T11:06:58.500Z,8.70
2018-06-02T11:07:58.323Z,7.60
2018-06-02T11:08:58.339Z,10.70
2018-06-02T11:09:58.306Z,6.80
2018-06-02T11:10:58.237Z,7.10
2018-06-02T11:11:58.247Z,7.20
2018-06-02T11:12:58.184Z,15.90
2018-06-02T11:13:58.136Z,8.30
2018-06-02T11:14:58.095Z,10.70
2018-06-02T11:15:58.101Z,8.70
2018-06-02T11:16:58.061Z,8.10
2018-06-02T11:17:58.007Z,8.50
2018-06-02T11:18:57.986Z,8.40
2018-06-02T11:19:57.941Z,8.20
2018-06-02T11:20:57.940Z,8.30
2018-06-02T11:21:57.894Z,8.70
2018-06-02T11:22:57.825Z,8.10
2018-06-02T11:23:57.816Z,8.30
2018-06-02T11:24:57.781Z,7.70
2018-06-02T11:25:57.763Z,7.50
2018-06-02T11:26:57.705Z,7.00
2018-06-02T11:27:57.659Z,7.30
2018-06-02T11:28:57.635Z,6.80
2018-06-02T11:29:57.608Z,6.90
2018-06-02T11:30:57.594Z,6.70
2018-06-02T11:31:57.553Z,7.10
2018-06-02T11:32:57.499Z,6.90
2018-06-02T11:33:57.465Z,7.20
2018-06-02T11:34:57.453Z,7.00
2018-06-02T11:35:57.436Z,7.10
2018-06-02T11:36:57.377Z,6.60
2018-06-02T11:37:57.341Z,6.70
2018-06-02T11:38:57.303Z,6.80
2018-06-02T11:39:57.265Z,7.30
2018-06-02T11:40:57.251Z,7.10
2018-06-02T11:41:57.254Z,7.00
2018-06-02T11:42:57.170Z,7.20
2018-06-02T11:43:57.154Z,7.00
2018-06-02T11:44:57.113Z,7.30
2018-06-02T11:45:57.115Z,7.30
2018-06-02T11:46:57.069Z,7.30
2018-06-02T11:47:57.031Z,7.20
2018-06-02T11:48:56.965Z,6.60
2018-06-02T11:49:56.944Z,6.90
2018-06-02T11:50:56.920Z,6.30
2018-06-02T11:51:56.921Z,6.00
2018-06-02T11:52:56.843Z,5.60
2018-06-02T11:53:56.821Z,6.40
2018-06-02T11:54:56.787Z,5.90
2018-06-02T11:55:56.743Z,6.00
2018-06-02T11:56:56.735Z,6.10
2018-06-02T11:57:57.006Z,6.10
2018-06-02T11:58:56.646Z,5.70
2018-06-02T11:59:56.636Z,5.60
2018-06-02T12:01:07.530Z,5.40
2018-06-02T12:01:57.267Z,5.70
2018-06-02T12:02:56.571Z,5.00
2018-06-02T12:03:56.485Z,5.60
2018-06-02T12:04:56.445Z,5.40
2018-06-02T12:05:56.406Z,4.90
2018-06-02T12:06:56.412Z,5.10
2018-06-02T12:07:56.390Z,5.50
2018-06-02T12:08:56.340Z,5.30
2018-06-02T12:09:56.288Z,4.90
2018-06-02T12:10:56.254Z,5.20
2018-06-02T12:11:56.237Z,5.40
2018-06-02T12:12:56.247Z,5.20
2018-06-02T12:13:56.232Z,4.90
2018-06-02T12:14:56.171Z,5.10
2018-06-02T12:15:56.108Z,4.90
2018-06-02T12:16:56.086Z,5.10
2018-06-02T12:17:56.070Z,5.20
2018-06-02T12:18:56.017Z,5.40
2018-06-02T12:20:06.700Z,5.70
2018-06-02T12:21:07.812Z,6.00
2018-06-02T12:21:56.006Z,5.70
2018-06-02T12:22:56.118Z,5.50
2018-06-02T12:23:56.965Z,5.30
2018-06-02T12:24:55.832Z,4.90
2018-06-02T12:25:55.794Z,4.40
2018-06-02T12:26:55.766Z,4.80
2018-06-02T12:27:55.749Z,4.70
2018-06-02T12:28:55.768Z,4.60
2018-06-02T12:29:55.703Z,4.90
2018-06-02T12:30:55.681Z,4.30
2018-06-02T12:31:55.654Z,4.90
2018-06-02T12:32:55.671Z,5.10
2018-06-02T12:33:55.616Z,4.70
2018-06-02T12:34:55.600Z,4.60
2018-06-02T12:35:55.573Z,4.50
2018-06-02T12:36:55.508Z,4.60
2018-06-02T12:37:55.490Z,4.20
2018-06-02T12:38:55.467Z,4.00
2018-06-02T12:40:06.096Z,3.70
2018-06-02T12:40:55.419Z,4.00
2018-06-02T12:41:55.463Z,3.30
2018-06-02T12:42:55.327Z,3.80
2018-06-02T12:43:55.333Z,4.30
2018-06-02T12:44:55.276Z,3.80
2018-06-02T12:45:55.240Z,4.30
2018-06-02T12:46:55.243Z,4.10
2018-06-02T12:47:55.198Z,4.00
2018-06-02T12:48:55.175Z,4.50
2018-06-02T12:49:55.120Z,4.30
2018-06-02T12:50:55.094Z,4.30
2018-06-02T12:51:55.049Z,4.80
2018-06-02T12:52:55.084Z,4.30
2018-06-02T12:53:54.995Z,4.40
2018-06-02T12:54:54.990Z,4.50
2018-06-02T12:55:54.918Z,4.30
2018-06-02T12:56:54.886Z,4.90